sensor_id;sensor_type;location;lat;lon;timestamp;pressure;altitude;pressure_sealevel;temperature;humidity
41102;BME280;26845;50.190;19.178;2023-02-01T00:02:05;98056.77;;;0.63;100.00
41102;BME280;26845;50.190;19.178;2023-02-01T00:04:31;98049.34;;;0.64;100.00
41102;BME280;26845;50.190;19.178;2023-02-01T00:06:57;98052.34;;;0.65;100.00
41102;BME280;26845;50.190;19.178;2023-02-01T00:09:25;98058.36;;;0.67;100.00
41102;BME280;26845;50.190;19.178;2023-02-01T00:11:52;98048.42;;;0.69;100.00
41102;BME280;26845;50.190;19.178;2023-02-01T00:14:18;98048.73;;;0.69;100.00
41102;BME280;26845;50.190;19.178;2023-02-01T00:16:44;98053.61;;;0.69;100.00
41102;BME280;26845;50.190;19.178;2023-02-01T00:19:13;98051.58;;;0.68;100.00
41102;BME280;26845;50.190;19.178;2023-02-01T00:21:40;98050.28;;;0.69;100.00
41102;BME280;26845;50.190;19.178;2023-02-01T00:24:09;98046.71;;;0.70;100.00
41102;BME280;26845;50.190;19.178;2023-02-01T00:26:42;98041.74;;;0.73;100.00
41102;BME280;26845;50.190;19.178;2023-02-01T00:29:14;98037.75;;;0.72;100.00
41102;BME280;26845;50.190;19.178;2023-02-01T00:31:40;98037.80;;;0.73;100.00
41102;BME280;26845;50.190;19.178;2023-02-01T00:34:08;98035.24;;;0.75;100.00
41102;BME280;26845;50.190;19.178;2023-02-01T00:36:37;98033.21;;;0.77;100.00
41102;BME280;26845;50.190;19.178;2023-02-01T00:39:03;98032.02;;;0.78;100.00
41102;BME280;26845;50.190;19.178;2023-02-01T00:41:29;98029.55;;;0.80;100.00
41102;BME280;26845;50.190;19.178;2023-02-01T00:43:55;98030.88;;;0.80;100.00
41102;BME280;26845;50.190;19.178;2023-02-01T00:46:22;98036.34;;;0.80;100.00
41102;BME280;26845;50.190;19.178;2023-02-01T00:48:49;98034.27;;;0.83;100.00
41102;BME280;26845;50.190;19.178;2023-02-01T00:51:20;98033.61;;;0.85;100.00
41102;BME280;26845;50.190;19.178;2023-02-01T00:53:47;98027.75;;;0.89;100.00
41102;BME280;26845;50.190;19.178;2023-02-01T00:56:15;98029.02;;;0.94;100.00
41102;BME280;26845;50.190;19.178;2023-02-01T00:58:44;98036.50;;;0.97;100.00
41102;BME280;26845;50.190;19.178;2023-02-01T01:01:22;98034.55;;;1.01;100.00
41102;BME280;26845;50.190;19.178;2023-02-01T01:04:06;98039.52;;;1.06;100.00
41102;BME280;26845;50.190;19.178;2023-02-01T01:06:34;98057.59;;;1.08;100.00
41102;BME280;26845;50.190;19.178;2023-02-01T01:09:07;98062.90;;;1.13;100.00
41102;BME280;26845;50.190;19.178;2023-02-01T01:11:36;98080.52;;;1.18;100.00
41102;BME280;26845;50.190;19.178;2023-02-01T01:14:03;98106.48;;;1.25;100.00
41102;BME280;26845;50.190;19.178;2023-02-01T01:16:31;98131.45;;;1.30;100.00
41102;BME280;26845;50.190;19.178;2023-02-01T01:19:00;98121.86;;;1.33;100.00
41102;BME280;26845;50.190;19.178;2023-02-01T01:21:27;98112.27;;;1.33;100.00
41102;BME280;26845;50.190;19.178;2023-02-01T01:23:53;98110.75;;;1.36;100.00
41102;BME280;26845;50.190;19.178;2023-02-01T01:26:24;98097.48;;;1.37;100.00
41102;BME280;26845;50.190;19.178;2023-02-01T01:28:54;98092.52;;;1.36;100.00
41102;BME280;26845;50.190;19.178;2023-02-01T01:31:20;98096.89;;;1.33;100.00
41102;BME280;26845;50.190;19.178;2023-02-01T01:33:51;98105.71;;;1.31;100.00
41102;BME280;26845;50.190;19.178;2023-02-01T01:36:18;98101.77;;;1.26;100.00
41102;BME280;26845;50.190;19.178;2023-02-01T01:38:43;98092.79;;;1.18;100.00
41102;BME280;26845;50.190;19.178;2023-02-01T01:41:22;98106.30;;;1.10;100.00
41102;BME280;26845;50.190;19.178;2023-02-01T01:46:27;98108.16;;;1.03;100.00
41102;BME280;26845;50.190;19.178;2023-02-01T01:49:16;98116.80;;;1.00;100.00
41102;BME280;26845;50.190;19.178;2023-02-01T01:51:56;98128.62;;;0.98;100.00
41102;BME280;26845;50.190;19.178;2023-02-01T01:54:28;98137.26;;;0.96;100.00
41102;BME280;26845;50.190;19.178;2023-02-01T01:57:04;98133.26;;;0.93;100.00
41102;BME280;26845;50.190;19.178;2023-02-01T01:59:36;98135.55;;;0.88;100.00
41102;BME280;26845;50.190;19.178;2023-02-01T02:02:02;98117.10;;;0.83;100.00
41102;BME280;26845;50.190;19.178;2023-02-01T02:04:32;98103.54;;;0.80;100.00
41102;BME280;26845;50.190;19.178;2023-02-01T02:07:09;98099.70;;;0.80;100.00
41102;BME280;26845;50.190;19.178;2023-02-01T02:09:37;98116.80;;;0.76;100.00
41102;BME280;26845;50.190;19.178;2023-02-01T02:12:03;98137.97;;;0.74;100.00
41102;BME280;26845;50.190;19.178;2023-02-01T02:14:33;98126.20;;;0.71;100.00
41102;BME280;26845;50.190;19.178;2023-02-01T02:17:07;98130.85;;;0.68;100.00
41102;BME280;26845;50.190;19.178;2023-02-01T02:19:56;98131.37;;;0.63;100.00
41102;BME280;26845;50.190;19.178;2023-02-01T02:23:01;98122.51;;;0.58;100.00
41102;BME280;26845;50.190;19.178;2023-02-01T02:25:52;98126.97;;;0.56;100.00
41102;BME280;26845;50.190;19.178;2023-02-01T02:34:57;98120.54;;;0.58;100.00
41102;BME280;26845;50.190;19.178;2023-02-01T02:37:39;98124.52;;;0.59;100.00
41102;BME280;26845;50.190;19.178;2023-02-01T02:49:21;98117.70;;;0.60;100.00
41102;BME280;26845;50.190;19.178;2023-02-01T02:51:59;98120.91;;;0.58;100.00
41102;BME280;26845;50.190;19.178;2023-02-01T02:54:47;98128.52;;;0.58;100.00
41102;BME280;26845;50.190;19.178;2023-02-01T02:57:30;98130.31;;;0.57;100.00
41102;BME280;26845;50.190;19.178;2023-02-01T03:00:19;98136.60;;;0.57;100.00
41102;BME280;26845;50.190;19.178;2023-02-01T03:03:04;98135.41;;;0.58;100.00
41102;BME280;26845;50.190;19.178;2023-02-01T03:05:49;98125.13;;;0.59;100.00
41102;BME280;26845;50.190;19.178;2023-02-01T03:08:26;98126.61;;;0.58;100.00
41102;BME280;26845;50.190;19.178;2023-02-01T03:11:02;98129.88;;;0.56;100.00
41102;BME280;26845;50.190;19.178;2023-02-01T03:13:36;98134.52;;;0.53;100.00
41102;BME280;26845;50.190;19.178;2023-02-01T03:21:35;98129.91;;;0.50;100.00
41102;BME280;26845;50.190;19.178;2023-02-01T03:24:06;98143.04;;;0.49;100.00
41102;BME280;26845;50.190;19.178;2023-02-01T03:26:38;98141.33;;;0.47;100.00
41102;BME280;26845;50.190;19.178;2023-02-01T03:29:14;98138.70;;;0.46;100.00
41102;BME280;26845;50.190;19.178;2023-02-01T03:31:42;98144.66;;;0.48;100.00
41102;BME280;26845;50.190;19.178;2023-02-01T03:34:11;98150.89;;;0.47;100.00
41102;BME280;26845;50.190;19.178;2023-02-01T03:36:42;98144.84;;;0.49;100.00
41102;BME280;26845;50.190;19.178;2023-02-01T03:39:20;98144.38;;;0.58;100.00
41102;BME280;26845;50.190;19.178;2023-02-01T03:41:51;98149.54;;;0.63;100.00
41102;BME280;26845;50.190;19.178;2023-02-01T03:44:22;98147.85;;;0.66;100.00
41102;BME280;26845;50.190;19.178;2023-02-01T03:46:55;98157.31;;;0.68;100.00
41102;BME280;26845;50.190;19.178;2023-02-01T03:49:35;98161.59;;;0.70;100.00
41102;BME280;26845;50.190;19.178;2023-02-01T03:52:14;98165.79;;;0.62;100.00
41102;BME280;26845;50.190;19.178;2023-02-01T03:54:41;98153.87;;;0.50;100.00
41102;BME280;26845;50.190;19.178;2023-02-01T03:57:16;98160.17;;;0.43;100.00
41102;BME280;26845;50.190;19.178;2023-02-01T03:59:45;98154.95;;;0.43;100.00
41102;BME280;26845;50.190;19.178;2023-02-01T04:02:11;98150.02;;;0.44;100.00
41102;BME280;26845;50.190;19.178;2023-02-01T04:04:38;98148.66;;;0.47;100.00
41102;BME280;26845;50.190;19.178;2023-02-01T04:07:04;98144.01;;;0.48;100.00
41102;BME280;26845;50.190;19.178;2023-02-01T04:09:31;98143.58;;;0.48;100.00
41102;BME280;26845;50.190;19.178;2023-02-01T04:11:57;98147.62;;;0.49;100.00
41102;BME280;26845;50.190;19.178;2023-02-01T04:14:23;98140.63;;;0.50;100.00
41102;BME280;26845;50.190;19.178;2023-02-01T04:16:50;98140.73;;;0.50;100.00
41102;BME280;26845;50.190;19.178;2023-02-01T04:19:16;98139.70;;;0.49;100.00
41102;BME280;26845;50.190;19.178;2023-02-01T04:21:43;98144.71;;;0.49;100.00
41102;BME280;26845;50.190;19.178;2023-02-01T04:24:09;98141.66;;;0.47;100.00
41102;BME280;26845;50.190;19.178;2023-02-01T04:26:36;98141.70;;;0.45;100.00
41102;BME280;26845;50.190;19.178;2023-02-01T04:29:02;98142.09;;;0.44;100.00
41102;BME280;26845;50.190;19.178;2023-02-01T04:31:29;98149.17;;;0.41;100.00
41102;BME280;26845;50.190;19.178;2023-02-01T04:33:55;98145.33;;;0.36;100.00
41102;BME280;26845;50.190;19.178;2023-02-01T04:36:23;98152.15;;;0.34;100.00
41102;BME280;26845;50.190;19.178;2023-02-01T04:38:52;98148.03;;;0.31;100.00
41102;BME280;26845;50.190;19.178;2023-02-01T04:41:21;98144.84;;;0.26;100.00
41102;BME280;26845;50.190;19.178;2023-02-01T04:43:49;98142.90;;;0.21;100.00
41102;BME280;26845;50.190;19.178;2023-02-01T04:46:16;98144.87;;;0.19;100.00
41102;BME280;26845;50.190;19.178;2023-02-01T04:48:42;98145.58;;;0.17;100.00
41102;BME280;26845;50.190;19.178;2023-02-01T04:51:11;98152.73;;;0.17;100.00
41102;BME280;26845;50.190;19.178;2023-02-01T04:53:37;98145.50;;;0.17;100.00
41102;BME280;26845;50.190;19.178;2023-02-01T04:56:03;98150.14;;;0.16;100.00
41102;BME280;26845;50.190;19.178;2023-02-01T04:58:29;98157.91;;;0.16;100.00
41102;BME280;26845;50.190;19.178;2023-02-01T05:00:55;98149.45;;;0.17;100.00
41102;BME280;26845;50.190;19.178;2023-02-01T05:03:21;98149.45;;;0.17;100.00
41102;BME280;26845;50.190;19.178;2023-02-01T05:05:48;98142.67;;;0.17;100.00
41102;BME280;26845;50.190;19.178;2023-02-01T05:08:14;98145.07;;;0.17;100.00
41102;BME280;26845;50.190;19.178;2023-02-01T05:10:40;98142.29;;;0.17;100.00
41102;BME280;26845;50.190;19.178;2023-02-01T05:13:09;98145.08;;;0.18;100.00
41102;BME280;26845;50.190;19.178;2023-02-01T05:15:53;98146.34;;;0.19;100.00
41102;BME280;26845;50.190;19.178;2023-02-01T05:18:21;98145.64;;;0.20;100.00
41102;BME280;26845;50.190;19.178;2023-02-01T05:20:46;98140.61;;;0.21;100.00
41102;BME280;26845;50.190;19.178;2023-02-01T05:23:13;98141.27;;;0.21;100.00
41102;BME280;26845;50.190;19.178;2023-02-01T05:25:39;98141.61;;;0.24;100.00
41102;BME280;26845;50.190;19.178;2023-02-01T05:28:07;98139.27;;;0.27;100.00
41102;BME280;26845;50.190;19.178;2023-02-01T05:30:33;98141.04;;;0.30;100.00
41102;BME280;26845;50.190;19.178;2023-02-01T05:33:00;98139.45;;;0.32;100.00
41102;BME280;26845;50.190;19.178;2023-02-01T05:35:26;98142.92;;;0.36;100.00
41102;BME280;26845;50.190;19.178;2023-02-01T05:37:54;98138.56;;;0.39;100.00
41102;BME280;26845;50.190;19.178;2023-02-01T05:40:20;98137.52;;;0.40;100.00
41102;BME280;26845;50.190;19.178;2023-02-01T05:42:46;98139.84;;;0.43;100.00
41102;BME280;26845;50.190;19.178;2023-02-01T05:45:12;98135.57;;;0.44;100.00
41102;BME280;26845;50.190;19.178;2023-02-01T05:47:38;98139.67;;;0.46;100.00
41102;BME280;26845;50.190;19.178;2023-02-01T05:50:06;98133.40;;;0.48;100.00
41102;BME280;26845;50.190;19.178;2023-02-01T05:52:34;98140.52;;;0.49;100.00
41102;BME280;26845;50.190;19.178;2023-02-01T05:55:00;98137.13;;;0.49;100.00
41102;BME280;26845;50.190;19.178;2023-02-01T05:57:26;98133.69;;;0.49;100.00
41102;BME280;26845;50.190;19.178;2023-02-01T05:59:52;98135.05;;;0.49;100.00
41102;BME280;26845;50.190;19.178;2023-02-01T06:02:18;98136.63;;;0.49;100.00
41102;BME280;26845;50.190;19.178;2023-02-01T06:04:47;98138.06;;;0.51;100.00
41102;BME280;26845;50.190;19.178;2023-02-01T06:07:13;98134.74;;;0.56;100.00
41102;BME280;26845;50.190;19.178;2023-02-01T06:09:40;98132.13;;;0.58;100.00
41102;BME280;26845;50.190;19.178;2023-02-01T06:12:07;98132.91;;;0.61;100.00
41102;BME280;26845;50.190;19.178;2023-02-01T06:14:33;98133.30;;;0.67;100.00
41102;BME280;26845;50.190;19.178;2023-02-01T06:17:01;98129.32;;;0.70;100.00
41102;BME280;26845;50.190;19.178;2023-02-01T06:19:28;98136.44;;;0.73;100.00
41102;BME280;26845;50.190;19.178;2023-02-01T06:21:54;98135.90;;;0.75;100.00
41102;BME280;26845;50.190;19.178;2023-02-01T06:24:21;98136.95;;;0.78;100.00
41102;BME280;26845;50.190;19.178;2023-02-01T06:26:47;98134.75;;;0.77;100.00
41102;BME280;26845;50.190;19.178;2023-02-01T06:29:13;98140.94;;;0.78;100.00
41102;BME280;26845;50.190;19.178;2023-02-01T06:31:40;98145.15;;;0.78;100.00
41102;BME280;26845;50.190;19.178;2023-02-01T06:34:06;98143.18;;;0.78;100.00
41102;BME280;26845;50.190;19.178;2023-02-01T06:36:32;98141.59;;;0.78;100.00
41102;BME280;26845;50.190;19.178;2023-02-01T06:39:04;98140.12;;;0.77;100.00
41102;BME280;26845;50.190;19.178;2023-02-01T06:41:29;98140.51;;;0.77;100.00
41102;BME280;26845;50.190;19.178;2023-02-01T06:43:55;98140.29;;;0.77;100.00
41102;BME280;26845;50.190;19.178;2023-02-01T06:46:22;98146.80;;;0.78;100.00
41102;BME280;26845;50.190;19.178;2023-02-01T06:48:48;98144.28;;;0.79;100.00
41102;BME280;26845;50.190;19.178;2023-02-01T06:51:23;98146.30;;;0.80;100.00
41102;BME280;26845;50.190;19.178;2023-02-01T06:53:52;98146.75;;;0.80;100.00
41102;BME280;26845;50.190;19.178;2023-02-01T06:56:19;98144.73;;;0.81;100.00
41102;BME280;26845;50.190;19.178;2023-02-01T06:58:44;98142.00;;;0.83;100.00
41102;BME280;26845;50.190;19.178;2023-02-01T07:01:14;98135.26;;;0.85;100.00
41102;BME280;26845;50.190;19.178;2023-02-01T07:03:40;98130.89;;;0.85;100.00
41102;BME280;26845;50.190;19.178;2023-02-01T07:06:07;98134.56;;;0.87;100.00
41102;BME280;26845;50.190;19.178;2023-02-01T07:08:34;98127.90;;;0.91;100.00
41102;BME280;26845;50.190;19.178;2023-02-01T07:11:05;98129.98;;;0.94;100.00
41102;BME280;26845;50.190;19.178;2023-02-01T07:13:31;98132.08;;;0.97;100.00
41102;BME280;26845;50.190;19.178;2023-02-01T07:15:59;98129.61;;;0.98;100.00
41102;BME280;26845;50.190;19.178;2023-02-01T07:18:31;98133.80;;;0.97;100.00
41102;BME280;26845;50.190;19.178;2023-02-01T07:20:58;98140.83;;;1.00;100.00
41102;BME280;26845;50.190;19.178;2023-02-01T07:23:24;98143.19;;;1.00;100.00
41102;BME280;26845;50.190;19.178;2023-02-01T07:25:59;98142.20;;;1.02;100.00
41102;BME280;26845;50.190;19.178;2023-02-01T07:28:27;98140.72;;;1.05;100.00
41102;BME280;26845;50.190;19.178;2023-02-01T07:30:53;98135.48;;;1.06;100.00
41102;BME280;26845;50.190;19.178;2023-02-01T07:33:21;98144.13;;;1.09;100.00
41102;BME280;26845;50.190;19.178;2023-02-01T07:35:48;98139.25;;;1.11;100.00
41102;BME280;26845;50.190;19.178;2023-02-01T07:38:14;98138.48;;;1.10;100.00
41102;BME280;26845;50.190;19.178;2023-02-01T07:40:40;98141.23;;;1.09;100.00
41102;BME280;26845;50.190;19.178;2023-02-01T07:43:07;98134.92;;;1.09;100.00
41102;BME280;26845;50.190;19.178;2023-02-01T07:45:36;98134.77;;;1.09;100.00
41102;BME280;26845;50.190;19.178;2023-02-01T07:48:03;98135.31;;;1.09;100.00
41102;BME280;26845;50.190;19.178;2023-02-01T07:50:29;98130.38;;;1.10;100.00
41102;BME280;26845;50.190;19.178;2023-02-01T07:52:58;98134.77;;;1.11;100.00
41102;BME280;26845;50.190;19.178;2023-02-01T07:55:25;98138.39;;;1.11;100.00
41102;BME280;26845;50.190;19.178;2023-02-01T07:57:51;98132.69;;;1.13;100.00
41102;BME280;26845;50.190;19.178;2023-02-01T08:00:18;98134.98;;;1.13;100.00
41102;BME280;26845;50.190;19.178;2023-02-01T08:03:04;98134.67;;;1.15;100.00
41102;BME280;26845;50.190;19.178;2023-02-01T08:05:30;98141.07;;;1.18;100.00
41102;BME280;26845;50.190;19.178;2023-02-01T08:07:57;98135.82;;;1.22;100.00
41102;BME280;26845;50.190;19.178;2023-02-01T08:10:24;98138.77;;;1.26;100.00
41102;BME280;26845;50.190;19.178;2023-02-01T08:13:00;98140.48;;;1.26;100.00
41102;BME280;26845;50.190;19.178;2023-02-01T08:15:27;98139.82;;;1.26;100.00
41102;BME280;26845;50.190;19.178;2023-02-01T08:17:56;98139.55;;;1.27;100.00
41102;BME280;26845;50.190;19.178;2023-02-01T08:20:25;98134.30;;;1.29;100.00
41102;BME280;26845;50.190;19.178;2023-02-01T08:22:51;98135.61;;;1.30;100.00
41102;BME280;26845;50.190;19.178;2023-02-01T08:25:17;98136.05;;;1.31;100.00
41102;BME280;26845;50.190;19.178;2023-02-01T08:27:44;98131.17;;;1.31;100.00
41102;BME280;26845;50.190;19.178;2023-02-01T08:30:15;98126.63;;;1.33;100.00
41102;BME280;26845;50.190;19.178;2023-02-01T08:32:43;98129.86;;;1.37;100.00
41102;BME280;26845;50.190;19.178;2023-02-01T08:35:16;98123.23;;;1.40;100.00
41102;BME280;26845;50.190;19.178;2023-02-01T08:37:50;98118.69;;;1.45;100.00
41102;BME280;26845;50.190;19.178;2023-02-01T08:40:17;98121.42;;;1.47;100.00
41102;BME280;26845;50.190;19.178;2023-02-01T08:42:49;98121.33;;;1.49;100.00
41102;BME280;26845;50.190;19.178;2023-02-01T08:45:28;98123.29;;;1.50;99.85
41102;BME280;26845;50.190;19.178;2023-02-01T08:47:59;98124.72;;;1.51;99.57
41102;BME280;26845;50.190;19.178;2023-02-01T08:50:27;98124.71;;;1.52;99.56
41102;BME280;26845;50.190;19.178;2023-02-01T08:52:54;98125.65;;;1.53;100.00
41102;BME280;26845;50.190;19.178;2023-02-01T08:55:22;98126.80;;;1.55;99.88
41102;BME280;26845;50.190;19.178;2023-02-01T08:57:49;98121.77;;;1.60;99.93
41102;BME280;26845;50.190;19.178;2023-02-01T09:00:16;98117.96;;;1.62;99.86
41102;BME280;26845;50.190;19.178;2023-02-01T09:02:45;98115.88;;;1.65;99.78
41102;BME280;26845;50.190;19.178;2023-02-01T09:05:11;98118.89;;;1.70;99.68
41102;BME280;26845;50.190;19.178;2023-02-01T09:07:38;98118.02;;;1.73;99.16
41102;BME280;26845;50.190;19.178;2023-02-01T09:10:05;98115.16;;;1.75;98.68
41102;BME280;26845;50.190;19.178;2023-02-01T09:12:35;98122.55;;;1.77;97.95
41102;BME280;26845;50.190;19.178;2023-02-01T09:15:01;98124.59;;;1.79;98.67
41102;BME280;26845;50.190;19.178;2023-02-01T09:17:28;98124.69;;;1.81;98.31
41102;BME280;26845;50.190;19.178;2023-02-01T09:19:55;98124.40;;;1.83;97.79
41102;BME280;26845;50.190;19.178;2023-02-01T09:22:21;98122.33;;;1.84;97.52
41102;BME280;26845;50.190;19.178;2023-02-01T09:24:48;98113.40;;;1.85;97.80
41102;BME280;26845;50.190;19.178;2023-02-01T09:27:14;98122.55;;;1.85;98.01
41102;BME280;26845;50.190;19.178;2023-02-01T09:29:43;98115.64;;;1.84;97.69
41102;BME280;26845;50.190;19.178;2023-02-01T09:32:09;98121.34;;;1.85;98.34
41102;BME280;26845;50.190;19.178;2023-02-01T09:34:35;98124.52;;;1.86;98.61
41102;BME280;26845;50.190;19.178;2023-02-01T09:37:03;98120.89;;;1.86;98.27
41102;BME280;26845;50.190;19.178;2023-02-01T09:39:29;98115.03;;;1.87;98.41
41102;BME280;26845;50.190;19.178;2023-02-01T09:45:26;98118.27;;;1.87;98.69
41102;BME280;26845;50.190;19.178;2023-02-01T09:47:31;98109.87;;;1.88;98.90
41102;BME280;26845;50.190;19.178;2023-02-01T09:52:34;98112.13;;;1.88;99.34
41102;BME280;26845;50.190;19.178;2023-02-01T09:55:24;98103.30;;;1.92;99.62
41102;BME280;26845;50.190;19.178;2023-02-01T09:58:02;98100.81;;;1.98;99.24
41102;BME280;26845;50.190;19.178;2023-02-01T10:00:35;98100.95;;;2.03;99.32
41102;BME280;26845;50.190;19.178;2023-02-01T10:03:01;98101.33;;;2.07;99.46
41102;BME280;26845;50.190;19.178;2023-02-01T10:19:39;98090.48;;;2.21;99.08
41102;BME280;26845;50.190;19.178;2023-02-01T10:22:10;98089.66;;;2.24;99.24
41102;BME280;26845;50.190;19.178;2023-02-01T10:24:46;98084.93;;;2.27;98.98
41102;BME280;26845;50.190;19.178;2023-02-01T10:27:19;98086.66;;;2.31;99.10
41102;BME280;26845;50.190;19.178;2023-02-01T10:29:55;98072.23;;;2.35;99.00
41102;BME280;26845;50.190;19.178;2023-02-01T10:32:29;98070.34;;;2.38;98.88
41102;BME280;26845;50.190;19.178;2023-02-01T10:35:01;98072.73;;;2.42;98.98
41102;BME280;26845;50.190;19.178;2023-02-01T10:37:31;98069.83;;;2.44;98.03
41102;BME280;26845;50.190;19.178;2023-02-01T10:40:02;98072.63;;;2.44;97.93
41102;BME280;26845;50.190;19.178;2023-02-01T10:42:37;98070.54;;;2.46;98.10
41102;BME280;26845;50.190;19.178;2023-02-01T10:45:05;98076.16;;;2.49;98.55
41102;BME280;26845;50.190;19.178;2023-02-01T10:47:37;98070.94;;;2.52;98.52
41102;BME280;26845;50.190;19.178;2023-02-01T10:55:51;98072.97;;;2.40;98.56
41102;BME280;26845;50.190;19.178;2023-02-01T10:58:29;98083.80;;;2.34;98.65
41102;BME280;26845;50.190;19.178;2023-02-01T11:06:09;98078.23;;;2.16;99.23
41102;BME280;26845;50.190;19.178;2023-02-01T11:08:43;98079.11;;;2.12;99.84
41102;BME280;26845;50.190;19.178;2023-02-01T11:11:10;98071.34;;;2.08;100.00
41102;BME280;26845;50.190;19.178;2023-02-01T11:13:39;98066.86;;;2.04;100.00
41102;BME280;26845;50.190;19.178;2023-02-01T11:16:05;98065.93;;;2.01;100.00
41102;BME280;26845;50.190;19.178;2023-02-01T11:18:36;98064.31;;;1.97;100.00
41102;BME280;26845;50.190;19.178;2023-02-01T11:21:03;98059.39;;;1.92;100.00
41102;BME280;26845;50.190;19.178;2023-02-01T11:23:31;98060.10;;;1.90;100.00
41102;BME280;26845;50.190;19.178;2023-02-01T11:26:00;98058.84;;;1.90;100.00
41102;BME280;26845;50.190;19.178;2023-02-01T11:28:33;98049.09;;;1.90;100.00
41102;BME280;26845;50.190;19.178;2023-02-01T11:31:03;98044.86;;;1.93;100.00
41102;BME280;26845;50.190;19.178;2023-02-01T11:33:32;98044.41;;;1.98;100.00
41102;BME280;26845;50.190;19.178;2023-02-01T11:36:14;98042.75;;;1.99;100.00
41102;BME280;26845;50.190;19.178;2023-02-01T11:38:53;98043.80;;;2.01;100.00
41102;BME280;26845;50.190;19.178;2023-02-01T11:41:25;98036.55;;;2.03;100.00
41102;BME280;26845;50.190;19.178;2023-02-01T11:43:56;98041.37;;;2.04;100.00
41102;BME280;26845;50.190;19.178;2023-02-01T11:46:32;98035.71;;;2.07;100.00
41102;BME280;26845;50.190;19.178;2023-02-01T12:00:43;98011.61;;;2.46;100.00
41102;BME280;26845;50.190;19.178;2023-02-01T12:05:52;97990.81;;;2.55;100.00
41102;BME280;26845;50.190;19.178;2023-02-01T12:11:30;97992.59;;;2.42;100.00
41102;BME280;26845;50.190;19.178;2023-02-01T12:22:49;97973.73;;;2.49;100.00
41102;BME280;26845;50.190;19.178;2023-02-01T12:26:11;97969.14;;;2.48;100.00
41102;BME280;26845;50.190;19.178;2023-02-01T12:37:07;97956.31;;;2.54;100.00
41102;BME280;26845;50.190;19.178;2023-02-01T12:39:44;97958.30;;;2.53;100.00
41102;BME280;26845;50.190;19.178;2023-02-01T12:44:47;97967.37;;;2.50;100.00
41102;BME280;26845;50.190;19.178;2023-02-01T12:50:17;97970.16;;;2.43;100.00
41102;BME280;26845;50.190;19.178;2023-02-01T12:52:51;97970.67;;;2.39;100.00
41102;BME280;26845;50.190;19.178;2023-02-01T13:01:54;97969.32;;;2.28;100.00
41102;BME280;26845;50.190;19.178;2023-02-01T13:04:11;97957.94;;;2.25;100.00
41102;BME280;26845;50.190;19.178;2023-02-01T13:06:47;97957.22;;;2.23;100.00
41102;BME280;26845;50.190;19.178;2023-02-01T13:09:26;97954.92;;;2.22;100.00
41102;BME280;26845;50.190;19.178;2023-02-01T13:11:58;97947.41;;;2.24;100.00
41102;BME280;26845;50.190;19.178;2023-02-01T13:17:03;97929.05;;;2.31;100.00
41102;BME280;26845;50.190;19.178;2023-02-01T13:19:43;97922.06;;;2.34;100.00
41102;BME280;26845;50.190;19.178;2023-02-01T13:28:03;97916.33;;;2.39;100.00
41102;BME280;26845;50.190;19.178;2023-02-01T13:33:59;97908.24;;;2.42;100.00
41102;BME280;26845;50.190;19.178;2023-02-01T13:37:12;97902.44;;;2.48;100.00
41102;BME280;26845;50.190;19.178;2023-02-01T13:40:10;97906.23;;;2.54;100.00
41102;BME280;26845;50.190;19.178;2023-02-01T13:45:53;97905.98;;;2.58;100.00
41102;BME280;26845;50.190;19.178;2023-02-01T13:48:46;97907.28;;;2.58;100.00
41102;BME280;26845;50.190;19.178;2023-02-01T13:51:13;97906.76;;;2.56;100.00
41102;BME280;26845;50.190;19.178;2023-02-01T13:53:52;97907.59;;;2.55;100.00
41102;BME280;26845;50.190;19.178;2023-02-01T13:56:19;97905.17;;;2.55;100.00
41102;BME280;26845;50.190;19.178;2023-02-01T14:05:11;97916.39;;;2.45;100.00
41102;BME280;26845;50.190;19.178;2023-02-01T14:10:48;97919.63;;;2.31;100.00
41102;BME280;26845;50.190;19.178;2023-02-01T14:13:37;97934.30;;;2.15;100.00
41102;BME280;26845;50.190;19.178;2023-02-01T14:16:15;97943.20;;;2.02;100.00
41102;BME280;26845;50.190;19.178;2023-02-01T14:21:24;97953.09;;;1.71;100.00
41102;BME280;26845;50.190;19.178;2023-02-01T14:29:09;97952.33;;;1.15;100.00
41102;BME280;26845;50.190;19.178;2023-02-01T14:31:41;97945.94;;;0.99;100.00
41102;BME280;26845;50.190;19.178;2023-02-01T14:40:01;97941.08;;;0.61;100.00
41102;BME280;26845;50.190;19.178;2023-02-01T14:50:56;97940.90;;;0.45;100.00
41102;BME280;26845;50.190;19.178;2023-02-01T14:53:33;97935.56;;;0.44;100.00
41102;BME280;26845;50.190;19.178;2023-02-01T14:56:13;97937.64;;;0.42;100.00
41102;BME280;26845;50.190;19.178;2023-02-01T14:58:55;97936.15;;;0.40;100.00
41102;BME280;26845;50.190;19.178;2023-02-01T15:01:30;97938.38;;;0.39;100.00
41102;BME280;26845;50.190;19.178;2023-02-01T15:08:59;97939.70;;;0.38;100.00
41102;BME280;26845;50.190;19.178;2023-02-01T15:11:26;97944.56;;;0.38;100.00
41102;BME280;26845;50.190;19.178;2023-02-01T15:13:53;97949.22;;;0.39;100.00
41102;BME280;26845;50.190;19.178;2023-02-01T15:16:23;97948.51;;;0.40;100.00
41102;BME280;26845;50.190;19.178;2023-02-01T15:18:50;97952.94;;;0.41;100.00
41102;BME280;26845;50.190;19.178;2023-02-01T15:21:22;97960.43;;;0.44;100.00
41102;BME280;26845;50.190;19.178;2023-02-01T15:23:48;97961.80;;;0.47;100.00
41102;BME280;26845;50.190;19.178;2023-02-01T15:26:28;97967.06;;;0.49;100.00
41102;BME280;26845;50.190;19.178;2023-02-01T15:28:57;97970.13;;;0.54;100.00
41102;BME280;26845;50.190;19.178;2023-02-01T15:31:36;97972.52;;;0.58;100.00
41102;BME280;26845;50.190;19.178;2023-02-01T15:34:08;97976.96;;;0.63;100.00
41102;BME280;26845;50.190;19.178;2023-02-01T15:36:34;97974.83;;;0.67;100.00
41102;BME280;26845;50.190;19.178;2023-02-01T15:39:31;97973.58;;;0.71;100.00
41102;BME280;26845;50.190;19.178;2023-02-01T15:42:12;97969.80;;;0.77;100.00